createdAt,value
2019-06-07T00:01:16.193Z,11.10
2019-06-07T00:05:20.110Z,13.70
2019-06-07T00:09:24.310Z,13.57
2019-06-07T00:13:28.523Z,11.10
2019-06-07T00:17:32.768Z,11.37
2019-06-07T00:25:42.879Z,11.37
2019-06-07T00:29:47.133Z,10.47
2019-06-07T00:33:51.344Z,13.77
2019-06-07T00:37:55.572Z,10.43
2019-06-07T00:41:59.928Z,10.80
2019-06-07T00:46:04.196Z,9.13
2019-06-07T00:50:08.915Z,8.97
2019-06-07T00:54:15.807Z,11.70
2019-06-07T00:58:21.927Z,9.73
2019-06-07T01:02:29.084Z,12.33
2019-06-07T01:06:36.896Z,9.83
2019-06-07T01:10:53.145Z,15.03
2019-06-07T01:14:46.964Z,9.97
2019-06-07T01:18:51.474Z,9.83
2019-06-07T01:22:55.867Z,13.67
2019-06-07T01:27:00.081Z,10.63
2019-06-07T01:31:04.308Z,9.77
2019-06-07T01:35:08.642Z,12.57
2019-06-07T01:39:12.884Z,11.53
2019-06-07T01:43:19.364Z,12.57
2019-06-07T01:47:27.895Z,11.13
2019-06-07T01:51:30.680Z,11.73
2019-06-07T01:55:34.809Z,9.90
2019-06-07T01:59:39.030Z,11.17
2019-06-07T02:03:43.272Z,11.00
2019-06-07T02:07:47.502Z,12.13
2019-06-07T02:11:51.738Z,9.53
2019-06-07T02:15:57.039Z,11.40
2019-06-07T02:20:01.269Z,10.60
2019-06-07T02:24:05.523Z,11.37
2019-06-07T02:28:27.204Z,11.87
2019-06-07T02:32:15.589Z,11.70
2019-06-07T02:36:24.747Z,12.10
2019-06-07T02:40:29.939Z,13.30
2019-06-07T02:44:37.804Z,15.23
2019-06-07T02:48:40.059Z,12.57
2019-06-07T02:52:43.382Z,13.83
2019-06-07T02:56:58.102Z,16.93
2019-06-07T03:01:06.679Z,13.70
2019-06-07T03:05:01.192Z,13.30
2019-06-07T03:09:08.480Z,13.10
2019-06-07T03:13:15.840Z,18.03
2019-06-07T03:17:40.827Z,16.10
2019-06-07T03:21:45.870Z,17.30
2019-06-07T03:25:52.272Z,16.93
2019-06-07T03:29:56.524Z,15.90
2019-06-07T03:34:21.735Z,17.50
2019-06-07T03:38:34.799Z,16.77
2019-06-07T03:42:41.668Z,15.50
2019-06-07T03:46:53.913Z,16.13
2019-06-07T03:51:19.752Z,14.63
2019-06-07T03:55:10.724Z,15.57
2019-06-07T03:59:14.993Z,20.37
2019-06-07T04:03:33.421Z,21.63
2019-06-07T04:07:25.055Z,18.50
2019-06-07T04:11:30.103Z,19.87
2019-06-07T04:15:37.869Z,22.83
2019-06-07T04:19:43.213Z,23.93
2019-06-07T04:23:46.288Z,21.67
2019-06-07T04:27:51.185Z,23.67
2019-06-07T04:31:55.684Z,20.60
2019-06-07T04:36:00.600Z,22.43
2019-06-07T04:40:05.437Z,22.50
2019-06-07T04:44:10.366Z,22.17
2019-06-07T04:48:14.616Z,25.37
2019-06-07T04:52:18.846Z,27.60
2019-06-07T04:56:23.091Z,26.30
2019-06-07T05:00:51.863Z,29.83
2019-06-07T05:04:55.078Z,26.20
2019-06-07T05:14:07.270Z,29.67
2019-06-07T05:18:11.491Z,24.53
2019-06-07T05:22:15.719Z,24.77
2019-06-07T05:26:20.079Z,21.60
2019-06-07T05:31:01.986Z,19.50
2019-06-07T05:34:46.963Z,19.10
2019-06-07T05:38:48.388Z,17.90
2019-06-07T05:42:52.607Z,16.10
2019-06-07T05:46:56.844Z,19.97
2019-06-07T05:51:01.096Z,17.77
2019-06-07T05:55:05.776Z,14.00
2019-06-07T05:59:10.003Z,14.10
2019-06-07T06:03:14.214Z,13.87
2019-06-07T06:07:18.449Z,15.50
2019-06-07T06:11:41.050Z,12.40
2019-06-07T06:15:42.536Z,13.97
2019-06-07T06:19:34.454Z,14.00
2019-06-07T06:23:39.563Z,12.07
2019-06-07T06:32:39.464Z,11.40
2019-06-07T06:35:56.417Z,8.83
2019-06-07T06:40:00.674Z,9.30
2019-06-07T06:44:05.505Z,9.60
2019-06-07T06:48:09.726Z,11.17
2019-06-07T06:52:13.981Z,10.47
2019-06-07T06:56:18.213Z,11.83
2019-06-07T07:00:52.248Z,9.97
2019-06-07T07:04:53.472Z,10.53
2019-06-07T07:08:54.859Z,10.47
2019-06-07T07:12:59.068Z,9.47
2019-06-07T07:17:11.311Z,7.63
2019-06-07T07:21:15.498Z,8.23
2019-06-07T07:25:19.718Z,9.47
2019-06-07T07:29:23.916Z,6.13
2019-06-07T07:34:20.010Z,8.87
2019-06-07T07:37:34.023Z,8.50
2019-06-07T07:41:38.235Z,9.47
2019-06-07T07:45:46.019Z,7.47
2019-06-07T07:49:52.194Z,6.03
2019-06-07T07:54:09.352Z,6.77
2019-06-07T07:58:01.800Z,10.90
2019-06-07T08:02:06.001Z,6.80
2019-06-07T08:06:10.220Z,5.87
2019-06-07T08:10:14.438Z,7.67
2019-06-07T08:14:18.669Z,6.87
2019-06-07T08:18:22.944Z,7.43
2019-06-07T08:22:27.119Z,8.93
2019-06-07T08:26:31.562Z,6.17
2019-06-07T08:30:50.020Z,6.20
2019-06-07T08:34:41.767Z,7.57
2019-06-07T08:38:51.197Z,7.73
2019-06-07T08:43:11.334Z,8.87
2019-06-07T08:47:18.505Z,7.43
2019-06-07T08:51:08.191Z,8.40
2019-06-07T08:55:11.818Z,7.00
2019-06-07T08:59:16.042Z,7.80
2019-06-07T09:03:20.266Z,7.20
2019-06-07T09:07:24.490Z,11.37
2019-06-07T09:11:28.715Z,6.37
2019-06-07T09:15:32.931Z,5.60
2019-06-07T09:19:37.151Z,5.57
2019-06-07T09:23:41.396Z,6.77
2019-06-07T09:27:45.797Z,7.73
2019-06-07T09:31:53.295Z,8.47
2019-06-07T09:35:56.240Z,4.50
2019-06-07T09:40:15.372Z,8.77
2019-06-07T09:44:21.358Z,4.43
2019-06-07T09:48:24.025Z,4.27
2019-06-07T09:52:19.476Z,5.33
2019-06-07T09:56:23.764Z,7.03
2019-06-07T10:00:44.070Z,13.03
2019-06-07T10:04:34.942Z,5.10
2019-06-07T10:09:56.793Z,3.70
2019-06-07T10:12:46.694Z,4.43
2019-06-07T10:16:52.961Z,4.23
2019-06-07T10:20:57.226Z,6.17
2019-06-07T10:25:02.133Z,6.87
2019-06-07T10:29:07.230Z,6.83
2019-06-07T10:33:12.364Z,6.72
2019-06-07T10:37:16.653Z,4.93
2019-06-07T10:41:20.890Z,4.05
2019-06-07T10:45:25.619Z,3.15
2019-06-07T10:49:29.863Z,3.20
2019-06-07T10:53:34.115Z,3.47
2019-06-07T10:57:38.366Z,6.58
2019-06-07T11:01:42.573Z,17.00
2019-06-07T11:05:47.882Z,3.72
2019-06-07T11:10:06.417Z,4.55
2019-06-07T11:13:58.108Z,6.30
2019-06-07T11:18:02.340Z,7.12
2019-06-07T11:22:07.919Z,18.52
2019-06-07T11:26:12.542Z,3.58
2019-06-07T11:30:18.656Z,2.95
2019-06-07T11:34:23.015Z,9.88
2019-06-07T11:38:27.319Z,2.95
2019-06-07T11:42:31.527Z,2.67
2019-06-07T11:46:35.855Z,2.83
2019-06-07T11:50:40.136Z,2.65
2019-06-07T11:54:47.934Z,3.95
2019-06-07T11:58:50.244Z,4.00
2019-06-07T12:02:54.579Z,4.12
2019-06-07T12:06:59.012Z,6.70
2019-06-07T12:11:03.684Z,4.00
2019-06-07T12:15:08.920Z,4.42
2019-06-07T12:19:13.575Z,3.55
2019-06-07T12:23:18.133Z,2.60
2019-06-07T12:27:22.409Z,3.58
2019-06-07T12:31:26.649Z,5.20
2019-06-07T12:35:30.868Z,9.78
2019-06-07T12:39:35.092Z,3.77
2019-06-07T12:43:39.325Z,4.47
2019-06-07T12:47:43.537Z,5.30
2019-06-07T12:51:47.790Z,3.70
2019-06-07T12:55:52.028Z,2.37
2019-06-07T12:59:56.232Z,4.85
2019-06-07T13:04:00.477Z,4.12
2019-06-07T13:08:04.803Z,3.60
2019-06-07T13:12:09.018Z,3.80
2019-06-07T13:16:13.419Z,5.47
2019-06-07T13:20:18.187Z,2.65
2019-06-07T13:24:22.892Z,3.33
2019-06-07T13:28:27.218Z,5.03
2019-06-07T13:32:31.460Z,5.03
2019-06-07T13:36:35.739Z,8.00
2019-06-07T13:40:39.963Z,7.28
2019-06-07T13:44:44.281Z,14.18
2019-06-07T13:48:48.500Z,24.63
2019-06-07T13:52:52.974Z,17.40
2019-06-07T13:57:05.167Z,12.35
2019-06-07T14:01:09.902Z,4.55
2019-06-07T14:05:14.461Z,20.32
2019-06-07T14:09:19.230Z,5.67
2019-06-07T14:13:23.669Z,3.50
2019-06-07T14:17:28.236Z,4.35
2019-06-07T14:21:33.743Z,4.05
2019-06-07T14:25:37.976Z,4.28
2019-06-07T14:29:42.177Z,3.05
2019-06-07T14:33:46.553Z,3.22
2019-06-07T14:37:51.724Z,4.55
2019-06-07T14:42:08.353Z,5.10
2019-06-07T14:46:13.396Z,7.95
2019-06-07T14:50:17.758Z,4.53
2019-06-07T14:54:21.973Z,8.63
2019-06-07T14:58:27.089Z,3.40
2019-06-07T15:02:35.814Z,4.58
2019-06-07T15:06:37.289Z,6.62
2019-06-07T15:10:41.513Z,3.70
2019-06-07T15:14:45.719Z,2.87
2019-06-07T15:18:49.940Z,2.85
2019-06-07T15:22:54.179Z,2.80
2019-06-07T15:26:58.392Z,7.80
2019-06-07T15:31:02.643Z,5.00
2019-06-07T15:35:06.882Z,4.90
2019-06-07T15:39:11.120Z,2.83
2019-06-07T15:43:15.441Z,2.87
2019-06-07T15:47:19.756Z,3.10
2019-06-07T15:51:24.032Z,3.35
2019-06-07T15:55:28.392Z,4.12
2019-06-07T15:59:33.231Z,5.53
2019-06-07T16:03:37.952Z,3.77
2019-06-07T16:07:43.200Z,3.42
2019-06-07T16:11:47.274Z,3.52
2019-06-07T16:15:51.565Z,3.25
2019-06-07T16:19:55.788Z,5.75
2019-06-07T16:24:00.015Z,3.40
2019-06-07T16:28:04.260Z,3.33
2019-06-07T16:32:08.499Z,3.10
2019-06-07T16:36:12.725Z,5.25
2019-06-07T16:40:17.451Z,3.47
2019-06-07T16:44:21.670Z,4.03
2019-06-07T16:48:25.891Z,3.77
2019-06-07T16:52:30.148Z,4.08
2019-06-07T16:56:34.445Z,3.75
2019-06-07T17:00:39.194Z,5.42
2019-06-07T17:04:45.645Z,3.83
2019-06-07T17:08:50.046Z,10.18
2019-06-07T17:12:54.281Z,3.92
2019-06-07T17:16:58.618Z,4.15
2019-06-07T17:21:02.808Z,4.80
2019-06-07T17:25:07.198Z,6.17
2019-06-07T17:29:11.443Z,4.42
2019-06-07T17:33:15.698Z,4.10
2019-06-07T17:37:19.933Z,4.12
2019-06-07T17:41:24.126Z,4.85
2019-06-07T17:45:28.356Z,4.83
2019-06-07T17:49:32.587Z,6.47
2019-06-07T17:53:36.835Z,4.70
2019-06-07T17:57:42.134Z,4.25
2019-06-07T18:02:07.031Z,4.90
2019-06-07T18:05:54.235Z,4.78
2019-06-07T18:09:59.776Z,4.90
2019-06-07T18:14:10.597Z,6.12
2019-06-07T18:18:10.015Z,5.25
2019-06-07T18:22:14.221Z,5.53
2019-06-07T18:26:18.480Z,8.35
2019-06-07T18:30:22.710Z,9.25
2019-06-07T18:34:26.941Z,5.40
2019-06-07T18:38:31.176Z,5.55
2019-06-07T18:42:35.513Z,5.45
2019-06-07T18:46:39.736Z,5.85
2019-06-07T18:50:43.990Z,6.22
2019-06-07T18:54:48.836Z,6.37
2019-06-07T18:58:53.201Z,6.10
2019-06-07T19:02:58.093Z,6.10
2019-06-07T19:07:02.659Z,6.28
2019-06-07T19:11:06.890Z,7.75
2019-06-07T19:15:12.147Z,6.40
2019-06-07T19:19:16.401Z,4.77
2019-06-07T19:23:20.609Z,5.87
2019-06-07T19:27:24.934Z,5.30
2019-06-07T19:31:29.155Z,4.40
2019-06-07T19:35:33.425Z,2.87
2019-06-07T19:39:37.613Z,4.57
2019-06-07T19:43:41.901Z,5.17
2019-06-07T19:47:46.134Z,4.17
2019-06-07T19:51:50.388Z,5.37
2019-06-07T19:55:55.046Z,6.40
2019-06-07T19:59:59.619Z,8.27
2019-06-07T20:04:04.320Z,8.70
2019-06-07T20:08:08.907Z,6.23
2019-06-07T20:12:13.171Z,6.13
2019-06-07T20:16:17.391Z,7.20
2019-06-07T20:20:23.913Z,5.43
2019-06-07T20:24:27.766Z,7.63
2019-06-07T20:28:32.019Z,10.10
2019-06-07T20:32:36.281Z,6.87
2019-06-07T20:36:40.527Z,6.27
2019-06-07T20:40:44.839Z,5.17
2019-06-07T20:44:48.499Z,4.23
2019-06-07T20:48:52.922Z,3.90
2019-06-07T20:52:59.373Z,4.43
2019-06-07T20:57:03.120Z,4.20
2019-06-07T21:01:07.435Z,3.97
2019-06-07T21:05:11.712Z,2.93
2019-06-07T21:09:15.927Z,2.73
2019-06-07T21:13:20.413Z,4.37
2019-06-07T21:17:24.717Z,3.73
2019-06-07T21:21:29.064Z,3.57
2019-06-07T21:25:33.276Z,4.47
2019-06-07T21:29:37.905Z,7.27
2019-06-07T21:33:42.820Z,3.80
2019-06-07T21:37:47.363Z,10.43
2019-06-07T21:41:51.608Z,5.47
2019-06-07T21:46:05.456Z,4.73
2019-06-07T21:50:04.906Z,6.33
2019-06-07T21:54:10.066Z,3.17
2019-06-07T21:58:15.155Z,3.00
2019-06-07T22:02:19.523Z,3.07
2019-06-07T22:06:26.046Z,3.77
2019-06-07T22:10:30.287Z,1.97
2019-06-07T22:14:34.498Z,3.10
2019-06-07T22:18:38.729Z,1.83
2019-06-07T22:22:43.283Z,6.47
2019-06-07T22:26:47.526Z,8.30
2019-06-07T22:30:51.752Z,2.23
2019-06-07T22:34:55.962Z,2.13
2019-06-07T22:39:00.182Z,3.13
2019-06-07T22:43:04.419Z,3.83
2019-06-07T22:47:28.077Z,2.70
2019-06-07T22:51:32.319Z,9.07
2019-06-07T22:55:36.534Z,5.40
2019-06-07T22:59:40.758Z,2.33
2019-06-07T23:03:44.987Z,1.43
2019-06-07T23:07:49.243Z,4.07
2019-06-07T23:11:53.468Z,4.13
2019-06-07T23:15:57.674Z,1.30
2019-06-07T23:20:01.912Z,2.70
2019-06-07T23:24:06.147Z,1.50
2019-06-07T23:28:10.368Z,4.97
2019-06-07T23:32:14.605Z,3.37
2019-06-07T23:36:19.296Z,1.23
2019-06-07T23:40:23.814Z,7.70
2019-06-07T23:44:28.043Z,2.07
2019-06-07T23:48:32.272Z,3.17
2019-06-07T23:52:36.519Z,2.23
2019-06-07T23:56:43.512Z,3.23
